Thomas, South Dakota
Current Conditions -  °F | °C
As of 11:53 PM on Saturday 25 Oct 2014 (Local Time) from KATY Reporting Station
Clear Clear  
Wind Chill: 42°   Ceiling: Unl
Heat Index: 42°   Visibility: 10mi
Dew Point: 30°   Wind: 3mph
Humidity: 62%   Direction: 150°SSE
Pressure: 30.04"   Gusts: NA
Location:  44.6748°N, 97.2476°W
Report Text: KATY 260453Z AUTO 15003KT 10SM CLR 06/M01 A3004 RMK AO2 SLP177 T00561011 $
Loading
Personal Weather Stations






























Interactive Weather Map
Tropical Storm Tracking
New forecast layout! Learn more

10-Day Weather Forecast

Advertisements
Track Severe Weather on mobile